Grove Hill, Alabama
Current Conditions -  °F | °C
As of 9:36 PM on Monday 22 Dec 2014 (Local Time) from KGZH Reporting Station
Overcast Overcast  
Wind Chill: 63°   Ceiling: 600
Heat Index: 63°   Visibility: 10mi
Dew Point: 60°   Wind: 5mph
Humidity: 90%   Direction: 140°SE
Pressure: 29.82"   Gusts: NA
Location:  31.71°N, 87.78°W
Report Text: KGZH 230336Z AUTO 14004KT 10SM OVC006 17/16 A2982 RMK AO2 T01720156
Loading
Personal Weather Stations






























Interactive Weather Map New forecast layout! Learn more

10-Day Weather Forecast

Advertisements
Track Severe Weather on mobile